sensor_id;sensor_type;location;lat;lon;timestamp;P1;durP1;ratioP1;P2;durP2;ratioP2
73959;SDS011;62316;48.920;2.342;2024-03-23T00:54:34;19.00;;;16.50;;
73959;SDS011;62316;48.920;2.342;2024-03-23T00:56:59;15.50;;;12.50;;
73959;SDS011;62316;48.920;2.342;2024-03-23T00:59:24;13.33;;;12.33;;
73959;SDS011;62316;48.920;2.342;2024-03-23T01:01:53;12.50;;;11.25;;
73959;SDS011;62316;48.920;2.342;2024-03-23T01:04:18;11.50;;;9.25;;
73959;SDS011;62316;48.920;2.342;2024-03-23T01:06:43;20.50;;;17.25;;
73959;SDS011;62316;48.920;2.342;2024-03-23T01:09:08;15.50;;;11.50;;
73959;SDS011;62316;48.920;2.342;2024-03-23T01:11:35;18.25;;;13.75;;
73959;SDS011;62316;48.920;2.342;2024-03-23T01:14:01;14.00;;;9.25;;
73959;SDS011;62316;48.920;2.342;2024-03-23T01:16:26;17.00;;;14.75;;
73959;SDS011;62316;48.920;2.342;2024-03-23T01:18:51;17.00;;;14.50;;
73959;SDS011;62316;48.920;2.342;2024-03-23T01:21:16;16.50;;;13.75;;
73959;SDS011;62316;48.920;2.342;2024-03-23T01:23:42;13.00;;;12.00;;
73959;SDS011;62316;48.920;2.342;2024-03-23T01:26:13;17.50;;;13.00;;
73959;SDS011;62316;48.920;2.342;2024-03-23T01:28:39;18.50;;;14.25;;
73959;SDS011;62316;48.920;2.342;2024-03-23T01:31:05;17.00;;;16.75;;
73959;SDS011;62316;48.920;2.342;2024-03-23T01:33:30;14.50;;;12.50;;
73959;SDS011;62316;48.920;2.342;2024-03-23T01:35:55;16.50;;;14.50;;
73959;SDS011;62316;48.920;2.342;2024-03-23T01:38:20;10.00;;;10.00;;
73959;SDS011;62316;48.920;2.342;2024-03-23T01:40:45;12.00;;;10.50;;
73959;SDS011;62316;48.920;2.342;2024-03-23T01:43:11;15.50;;;12.75;;
73959;SDS011;62316;48.920;2.342;2024-03-23T01:45:36;10.75;;;10.75;;
73959;SDS011;62316;48.920;2.342;2024-03-23T01:48:02;12.00;;;9.67;;
73959;SDS011;62316;48.920;2.342;2024-03-23T01:50:28;11.25;;;11.00;;
73959;SDS011;62316;48.920;2.342;2024-03-23T01:52:53;10.00;;;9.00;;
73959;SDS011;62316;48.920;2.342;2024-03-23T01:55:19;11.75;;;9.00;;
73959;SDS011;62316;48.920;2.342;2024-03-23T01:57:44;9.00;;;8.50;;
73959;SDS011;62316;48.920;2.342;2024-03-23T02:00:09;10.50;;;7.50;;
73959;SDS011;62316;48.920;2.342;2024-03-23T02:02:40;11.00;;;8.00;;
73959;SDS011;62316;48.920;2.342;2024-03-23T02:05:05;10.33;;;8.00;;
73959;SDS011;62316;48.920;2.342;2024-03-23T02:07:31;13.00;;;11.00;;
73959;SDS011;62316;48.920;2.342;2024-03-23T02:09:56;13.75;;;11.25;;
73959;SDS011;62316;48.920;2.342;2024-03-23T02:12:21;12.00;;;11.00;;
73959;SDS011;62316;48.920;2.342;2024-03-23T02:14:46;8.00;;;8.00;;
73959;SDS011;62316;48.920;2.342;2024-03-23T02:17:12;12.00;;;9.75;;
73959;SDS011;62316;48.920;2.342;2024-03-23T02:19:37;9.25;;;9.25;;
73959;SDS011;62316;48.920;2.342;2024-03-23T02:22:02;13.75;;;8.25;;
73959;SDS011;62316;48.920;2.342;2024-03-23T02:24:29;5.50;;;4.50;;
73959;SDS011;62316;48.920;2.342;2024-03-23T02:26:54;7.00;;;2.67;;
73959;SDS011;62316;48.920;2.342;2024-03-23T02:29:19;4.00;;;3.00;;
73959;SDS011;62316;48.920;2.342;2024-03-23T02:31:45;5.25;;;4.00;;
73959;SDS011;62316;48.920;2.342;2024-03-23T02:34:10;3.75;;;2.50;;
73959;SDS011;62316;48.920;2.342;2024-03-23T02:36:35;3.00;;;2.00;;
73959;SDS011;62316;48.920;2.342;2024-03-23T02:39:01;7.67;;;4.00;;
73959;SDS011;62316;48.920;2.342;2024-03-23T02:41:26;3.00;;;2.00;;
73959;SDS011;62316;48.920;2.342;2024-03-23T02:43:51;3.75;;;3.00;;
73959;SDS011;62316;48.920;2.342;2024-03-23T02:46:16;4.25;;;2.00;;
73959;SDS011;62316;48.920;2.342;2024-03-23T02:48:42;5.75;;;5.00;;
73959;SDS011;62316;48.920;2.342;2024-03-23T02:51:07;3.25;;;2.50;;
73959;SDS011;62316;48.920;2.342;2024-03-23T02:53:32;4.75;;;3.75;;
73959;SDS011;62316;48.920;2.342;2024-03-23T02:55:58;3.50;;;3.00;;
73959;SDS011;62316;48.920;2.342;2024-03-23T02:58:23;3.75;;;2.25;;
73959;SDS011;62316;48.920;2.342;2024-03-23T03:00:48;3.75;;;3.75;;
73959;SDS011;62316;48.920;2.342;2024-03-23T03:03:13;5.67;;;1.33;;
73959;SDS011;62316;48.920;2.342;2024-03-23T03:05:38;3.67;;;1.33;;
73959;SDS011;62316;48.920;2.342;2024-03-23T03:08:04;1.00;;;1.00;;
73959;SDS011;62316;48.920;2.342;2024-03-23T03:10:29;5.75;;;3.00;;
73959;SDS011;62316;48.920;2.342;2024-03-23T03:12:55;5.00;;;2.00;;
73959;SDS011;62316;48.920;2.342;2024-03-23T03:15:20;3.67;;;3.67;;
73959;SDS011;62316;48.920;2.342;2024-03-23T03:17:46;2.00;;;2.00;;
73959;SDS011;62316;48.920;2.342;2024-03-23T03:20:11;4.25;;;3.50;;
73959;SDS011;62316;48.920;2.342;2024-03-23T03:22:38;9.67;;;3.33;;
73959;SDS011;62316;48.920;2.342;2024-03-23T03:25:03;5.00;;;2.00;;
73959;SDS011;62316;48.920;2.342;2024-03-23T03:27:29;4.25;;;2.25;;
73959;SDS011;62316;48.920;2.342;2024-03-23T03:29:54;4.00;;;2.75;;
73959;SDS011;62316;48.920;2.342;2024-03-23T03:32:19;4.75;;;3.50;;
73959;SDS011;62316;48.920;2.342;2024-03-23T03:34:44;9.50;;;2.50;;
73959;SDS011;62316;48.920;2.342;2024-03-23T03:37:09;8.25;;;4.75;;
73959;SDS011;62316;48.920;2.342;2024-03-23T03:39:35;2.00;;;2.00;;
73959;SDS011;62316;48.920;2.342;2024-03-23T03:42:00;6.00;;;4.00;;
73959;SDS011;62316;48.920;2.342;2024-03-23T03:44:26;3.67;;;2.00;;
73959;SDS011;62316;48.920;2.342;2024-03-23T03:46:51;2.50;;;2.25;;
73959;SDS011;62316;48.920;2.342;2024-03-23T03:49:17;1.33;;;1.00;;
73959;SDS011;62316;48.920;2.342;2024-03-23T03:51:42;3.00;;;2.00;;
73959;SDS011;62316;48.920;2.342;2024-03-23T03:54:07;4.00;;;4.00;;
73959;SDS011;62316;48.920;2.342;2024-03-23T03:56:32;5.75;;;2.00;;
73959;SDS011;62316;48.920;2.342;2024-03-23T03:58:58;1.25;;;1.00;;
73959;SDS011;62316;48.920;2.342;2024-03-23T04:01:23;8.50;;;1.50;;
73959;SDS011;62316;48.920;2.342;2024-03-23T04:03:48;4.00;;;2.25;;
73959;SDS011;62316;48.920;2.342;2024-03-23T04:06:19;2.00;;;2.00;;
73959;SDS011;62316;48.920;2.342;2024-03-23T04:08:45;2.75;;;2.75;;
73959;SDS011;62316;48.920;2.342;2024-03-23T04:11:10;3.25;;;2.00;;
73959;SDS011;62316;48.920;2.342;2024-03-23T04:13:35;3.75;;;2.25;;
73959;SDS011;62316;48.920;2.342;2024-03-23T04:16:01;3.00;;;3.00;;
73959;SDS011;62316;48.920;2.342;2024-03-23T04:18:26;4.75;;;3.50;;
73959;SDS011;62316;48.920;2.342;2024-03-23T04:20:51;2.75;;;2.75;;
73959;SDS011;62316;48.920;2.342;2024-03-23T04:23:16;3.00;;;3.00;;
73959;SDS011;62316;48.920;2.342;2024-03-23T04:25:42;4.00;;;1.50;;
73959;SDS011;62316;48.920;2.342;2024-03-23T04:28:07;3.25;;;2.00;;
73959;SDS011;62316;48.920;2.342;2024-03-23T04:30:32;6.00;;;3.00;;
73959;SDS011;62316;48.920;2.342;2024-03-23T04:32:57;3.25;;;1.00;;
73959;SDS011;62316;48.920;2.342;2024-03-23T04:35:23;3.33;;;2.00;;
73959;SDS011;62316;48.920;2.342;2024-03-23T04:37:50;3.00;;;3.00;;
73959;SDS011;62316;48.920;2.342;2024-03-23T04:40:17;3.00;;;3.00;;
73959;SDS011;62316;48.920;2.342;2024-03-23T04:42:42;7.50;;;4.00;;
73959;SDS011;62316;48.920;2.342;2024-03-23T04:45:07;2.00;;;2.00;;
73959;SDS011;62316;48.920;2.342;2024-03-23T04:47:33;3.00;;;2.00;;
73959;SDS011;62316;48.920;2.342;2024-03-23T04:50:00;4.00;;;2.33;;
73959;SDS011;62316;48.920;2.342;2024-03-23T04:52:26;6.00;;;3.00;;
73959;SDS011;62316;48.920;2.342;2024-03-23T04:54:51;1.00;;;1.00;;
73959;SDS011;62316;48.920;2.342;2024-03-23T04:57:17;1.00;;;1.00;;
73959;SDS011;62316;48.920;2.342;2024-03-23T04:59:42;8.33;;;2.33;;
73959;SDS011;62316;48.920;2.342;2024-03-23T05:02:07;7.00;;;3.00;;
73959;SDS011;62316;48.920;2.342;2024-03-23T05:04:32;2.00;;;1.00;;
73959;SDS011;62316;48.920;2.342;2024-03-23T05:06:58;5.67;;;3.00;;
73959;SDS011;62316;48.920;2.342;2024-03-23T05:09:23;3.00;;;1.00;;
73959;SDS011;62316;48.920;2.342;2024-03-23T05:11:48;8.75;;;4.00;;
73959;SDS011;62316;48.920;2.342;2024-03-23T05:14:13;8.50;;;3.00;;
73959;SDS011;62316;48.920;2.342;2024-03-23T05:16:39;3.00;;;1.75;;
73959;SDS011;62316;48.920;2.342;2024-03-23T05:19:04;3.25;;;1.75;;
73959;SDS011;62316;48.920;2.342;2024-03-23T05:21:29;4.00;;;1.75;;
73959;SDS011;62316;48.920;2.342;2024-03-23T05:23:54;4.00;;;3.00;;
73959;SDS011;62316;48.920;2.342;2024-03-23T05:26:21;2.00;;;1.00;;
73959;SDS011;62316;48.920;2.342;2024-03-23T05:28:46;1.75;;;0.00;;
73959;SDS011;62316;48.920;2.342;2024-03-23T05:31:12;1.00;;;1.00;;
73959;SDS011;62316;48.920;2.342;2024-03-23T05:33:37;3.75;;;1.00;;
73959;SDS011;62316;48.920;2.342;2024-03-23T05:36:06;2.25;;;1.00;;
73959;SDS011;62316;48.920;2.342;2024-03-23T05:38:33;4.25;;;3.00;;
73959;SDS011;62316;48.920;2.342;2024-03-23T05:40:59;0.00;;;0.00;;
73959;SDS011;62316;48.920;2.342;2024-03-23T05:43:25;1.00;;;1.00;;
73959;SDS011;62316;48.920;2.342;2024-03-23T05:45:57;3.50;;;2.50;;
73959;SDS011;62316;48.920;2.342;2024-03-23T05:48:22;1.25;;;1.25;;
73959;SDS011;62316;48.920;2.342;2024-03-23T05:50:48;1.33;;;1.00;;
73959;SDS011;62316;48.920;2.342;2024-03-23T05:53:14;1.25;;;0.50;;
73959;SDS011;62316;48.920;2.342;2024-03-23T05:55:40;2.50;;;1.50;;
73959;SDS011;62316;48.920;2.342;2024-03-23T05:58:05;6.75;;;3.00;;
73959;SDS011;62316;48.920;2.342;2024-03-23T06:00:30;2.00;;;1.00;;
73959;SDS011;62316;48.920;2.342;2024-03-23T06:02:55;2.00;;;1.50;;
73959;SDS011;62316;48.920;2.342;2024-03-23T06:05:21;2.50;;;0.75;;
73959;SDS011;62316;48.920;2.342;2024-03-23T06:07:46;1.00;;;1.00;;
73959;SDS011;62316;48.920;2.342;2024-03-23T06:10:11;3.00;;;1.00;;
73959;SDS011;62316;48.920;2.342;2024-03-23T06:12:36;2.00;;;1.00;;
73959;SDS011;62316;48.920;2.342;2024-03-23T06:15:01;2.00;;;2.00;;
73959;SDS011;62316;48.920;2.342;2024-03-23T06:17:27;2.00;;;1.00;;
73959;SDS011;62316;48.920;2.342;2024-03-23T06:19:52;1.25;;;1.00;;
73959;SDS011;62316;48.920;2.342;2024-03-23T06:22:17;1.75;;;1.00;;
73959;SDS011;62316;48.920;2.342;2024-03-23T06:24:43;1.00;;;1.00;;
73959;SDS011;62316;48.920;2.342;2024-03-23T06:27:09;1.00;;;1.00;;
73959;SDS011;62316;48.920;2.342;2024-03-23T06:29:34;2.00;;;0.00;;
73959;SDS011;62316;48.920;2.342;2024-03-23T06:32:01;4.00;;;2.00;;
73959;SDS011;62316;48.920;2.342;2024-03-23T06:34:26;1.00;;;1.00;;
73959;SDS011;62316;48.920;2.342;2024-03-23T06:36:52;2.00;;;0.33;;
73959;SDS011;62316;48.920;2.342;2024-03-23T06:39:17;2.00;;;2.00;;
73959;SDS011;62316;48.920;2.342;2024-03-23T06:41:43;1.00;;;1.00;;
73959;SDS011;62316;48.920;2.342;2024-03-23T06:44:08;0.00;;;0.00;;
73959;SDS011;62316;48.920;2.342;2024-03-23T06:46:33;2.00;;;1.00;;
73959;SDS011;62316;48.920;2.342;2024-03-23T06:48:59;0.33;;;0.00;;
73959;SDS011;62316;48.920;2.342;2024-03-23T06:51:24;6.67;;;4.00;;
73959;SDS011;62316;48.920;2.342;2024-03-23T06:53:49;1.33;;;1.33;;
73959;SDS011;62316;48.920;2.342;2024-03-23T06:56:15;0.25;;;0.00;;
73959;SDS011;62316;48.920;2.342;2024-03-23T06:58:40;0.00;;;0.00;;
73959;SDS011;62316;48.920;2.342;2024-03-23T07:01:05;0.00;;;0.00;;
73959;SDS011;62316;48.920;2.342;2024-03-23T07:03:30;2.25;;;0.50;;
73959;SDS011;62316;48.920;2.342;2024-03-23T07:05:57;1.00;;;0.00;;
73959;SDS011;62316;48.920;2.342;2024-03-23T07:08:23;0.67;;;0.33;;
73959;SDS011;62316;48.920;2.342;2024-03-23T07:10:48;0.00;;;0.00;;
73959;SDS011;62316;48.920;2.342;2024-03-23T07:13:13;0.00;;;0.00;;
73959;SDS011;62316;48.920;2.342;2024-03-23T07:15:39;0.00;;;0.00;;
73959;SDS011;62316;48.920;2.342;2024-03-23T07:18:04;2.00;;;0.25;;
73959;SDS011;62316;48.920;2.342;2024-03-23T07:20:29;0.00;;;0.00;;
73959;SDS011;62316;48.920;2.342;2024-03-23T07:22:56;0.75;;;0.00;;
73959;SDS011;62316;48.920;2.342;2024-03-23T07:25:28;1.00;;;1.00;;
73959;SDS011;62316;48.920;2.342;2024-03-23T07:27:54;0.00;;;0.00;;
73959;SDS011;62316;48.920;2.342;2024-03-23T07:30:19;0.25;;;0.25;;
73959;SDS011;62316;48.920;2.342;2024-03-23T07:32:44;1.00;;;0.00;;
73959;SDS011;62316;48.920;2.342;2024-03-23T07:35:10;1.25;;;1.00;;
73959;SDS011;62316;48.920;2.342;2024-03-23T07:37:35;1.50;;;1.00;;
73959;SDS011;62316;48.920;2.342;2024-03-23T07:40:00;0.25;;;0.25;;
73959;SDS011;62316;48.920;2.342;2024-03-23T07:42:25;2.00;;;0.00;;
73959;SDS011;62316;48.920;2.342;2024-03-23T07:44:51;1.25;;;1.25;;
73959;SDS011;62316;48.920;2.342;2024-03-23T07:47:16;1.50;;;0.25;;
73959;SDS011;62316;48.920;2.342;2024-03-23T07:49:42;2.00;;;1.00;;
73959;SDS011;62316;48.920;2.342;2024-03-23T07:52:07;3.25;;;1.00;;
73959;SDS011;62316;48.920;2.342;2024-03-23T07:54:33;1.00;;;1.00;;
73959;SDS011;62316;48.920;2.342;2024-03-23T07:56:58;1.00;;;1.00;;
73959;SDS011;62316;48.920;2.342;2024-03-23T07:59:23;1.00;;;0.75;;
73959;SDS011;62316;48.920;2.342;2024-03-23T08:01:48;0.33;;;0.33;;
73959;SDS011;62316;48.920;2.342;2024-03-23T08:04:14;2.00;;;2.00;;
73959;SDS011;62316;48.920;2.342;2024-03-23T08:06:39;0.33;;;0.33;;
73959;SDS011;62316;48.920;2.342;2024-03-23T08:09:05;3.00;;;1.67;;
73959;SDS011;62316;48.920;2.342;2024-03-23T08:11:31;1.00;;;1.00;;
73959;SDS011;62316;48.920;2.342;2024-03-23T08:13:57;1.67;;;0.33;;
73959;SDS011;62316;48.920;2.342;2024-03-23T08:16:22;0.75;;;0.75;;
73959;SDS011;62316;48.920;2.342;2024-03-23T08:18:48;0.67;;;0.33;;
73959;SDS011;62316;48.920;2.342;2024-03-23T08:21:13;0.67;;;0.67;;
73959;SDS011;62316;48.920;2.342;2024-03-23T08:23:38;0.00;;;0.00;;
73959;SDS011;62316;48.920;2.342;2024-03-23T08:26:05;1.33;;;0.00;;
73959;SDS011;62316;48.920;2.342;2024-03-23T08:28:31;1.00;;;1.00;;
73959;SDS011;62316;48.920;2.342;2024-03-23T08:30:56;2.00;;;1.00;;
73959;SDS011;62316;48.920;2.342;2024-03-23T08:33:24;0.00;;;0.00;;
73959;SDS011;62316;48.920;2.342;2024-03-23T08:36:00;0.00;;;0.00;;
73959;SDS011;62316;48.920;2.342;2024-03-23T08:38:25;5.00;;;3.00;;
73959;SDS011;62316;48.920;2.342;2024-03-23T08:41:00;1.00;;;0.00;;
73959;SDS011;62316;48.920;2.342;2024-03-23T08:43:27;1.67;;;0.00;;
73959;SDS011;62316;48.920;2.342;2024-03-23T08:45:52;1.67;;;1.00;;
73959;SDS011;62316;48.920;2.342;2024-03-23T08:48:21;2.33;;;1.00;;
73959;SDS011;62316;48.920;2.342;2024-03-23T08:50:46;2.00;;;1.00;;
73959;SDS011;62316;48.920;2.342;2024-03-23T08:53:11;0.50;;;0.50;;
73959;SDS011;62316;48.920;2.342;2024-03-23T08:55:37;0.00;;;0.00;;
73959;SDS011;62316;48.920;2.342;2024-03-23T08:58:02;0.00;;;0.00;;
73959;SDS011;62316;48.920;2.342;2024-03-23T09:00:29;1.00;;;1.00;;
73959;SDS011;62316;48.920;2.342;2024-03-23T09:02:54;1.00;;;1.00;;
73959;SDS011;62316;48.920;2.342;2024-03-23T09:05:20;1.33;;;1.00;;
73959;SDS011;62316;48.920;2.342;2024-03-23T09:07:45;0.50;;;0.50;;
73959;SDS011;62316;48.920;2.342;2024-03-23T09:10:10;1.67;;;0.00;;
73959;SDS011;62316;48.920;2.342;2024-03-23T09:12:36;0.00;;;0.00;;
73959;SDS011;62316;48.920;2.342;2024-03-23T09:15:01;1.67;;;1.00;;
73959;SDS011;62316;48.920;2.342;2024-03-23T09:17:26;2.00;;;0.00;;
73959;SDS011;62316;48.920;2.342;2024-03-23T09:19:51;2.00;;;0.67;;
73959;SDS011;62316;48.920;2.342;2024-03-23T09:22:17;1.00;;;1.00;;
73959;SDS011;62316;48.920;2.342;2024-03-23T09:24:42;2.25;;;2.25;;
73959;SDS011;62316;48.920;2.342;2024-03-23T09:27:07;3.25;;;1.50;;
73959;SDS011;62316;48.920;2.342;2024-03-23T09:29:33;2.00;;;1.00;;
73959;SDS011;62316;48.920;2.342;2024-03-23T09:31:58;2.33;;;1.00;;
73959;SDS011;62316;48.920;2.342;2024-03-23T09:34:23;1.00;;;1.00;;
73959;SDS011;62316;48.920;2.342;2024-03-23T09:36:51;0.00;;;0.00;;
73959;SDS011;62316;48.920;2.342;2024-03-23T09:39:17;0.75;;;0.75;;
73959;SDS011;62316;48.920;2.342;2024-03-23T09:41:43;1.00;;;0.00;;
73959;SDS011;62316;48.920;2.342;2024-03-23T09:44:08;0.00;;;0.00;;
73959;SDS011;62316;48.920;2.342;2024-03-23T09:46:34;0.00;;;0.00;;
73959;SDS011;62316;48.920;2.342;2024-03-23T09:49:01;0.00;;;0.00;;
73959;SDS011;62316;48.920;2.342;2024-03-23T09:51:29;1.50;;;0.75;;
73959;SDS011;62316;48.920;2.342;2024-03-23T09:53:55;0.00;;;0.00;;
73959;SDS011;62316;48.920;2.342;2024-03-23T09:56:21;0.00;;;0.00;;
73959;SDS011;62316;48.920;2.342;2024-03-23T09:58:46;1.00;;;1.00;;
73959;SDS011;62316;48.920;2.342;2024-03-23T10:01:12;0.00;;;0.00;;
73959;SDS011;62316;48.920;2.342;2024-03-23T10:03:45;1.00;;;0.00;;
73959;SDS011;62316;48.920;2.342;2024-03-23T10:06:11;1.00;;;0.00;;
73959;SDS011;62316;48.920;2.342;2024-03-23T10:08:36;1.00;;;0.00;;
73959;SDS011;62316;48.920;2.342;2024-03-23T10:11:14;0.00;;;0.00;;
73959;SDS011;62316;48.920;2.342;2024-03-23T10:13:43;2.00;;;0.67;;
73959;SDS011;62316;48.920;2.342;2024-03-23T10:16:09;0.67;;;0.67;;
73959;SDS011;62316;48.920;2.342;2024-03-23T10:18:40;1.67;;;1.67;;
73959;SDS011;62316;48.920;2.342;2024-03-23T10:23:49;0.67;;;0.00;;
73959;SDS011;62316;48.920;2.342;2024-03-23T10:29:00;1.00;;;1.00;;
73959;SDS011;62316;48.920;2.342;2024-03-23T10:31:36;2.00;;;1.00;;
73959;SDS011;62316;48.920;2.342;2024-03-23T10:34:02;4.25;;;1.75;;
73959;SDS011;62316;48.920;2.342;2024-03-23T10:36:27;2.00;;;1.00;;
73959;SDS011;62316;48.920;2.342;2024-03-23T10:38:54;0.00;;;0.00;;
73959;SDS011;62316;48.920;2.342;2024-03-23T10:41:19;1.00;;;1.00;;
73959;SDS011;62316;48.920;2.342;2024-03-23T10:43:45;1.33;;;0.00;;
73959;SDS011;62316;48.920;2.342;2024-03-23T10:46:11;2.00;;;1.00;;
73959;SDS011;62316;48.920;2.342;2024-03-23T10:48:36;1.00;;;0.00;;
73959;SDS011;62316;48.920;2.342;2024-03-23T10:51:01;1.00;;;1.00;;
73959;SDS011;62316;48.920;2.342;2024-03-23T10:53:27;1.50;;;1.00;;
73959;SDS011;62316;48.920;2.342;2024-03-23T10:55:53;2.00;;;2.00;;
73959;SDS011;62316;48.920;2.342;2024-03-23T10:58:20;2.00;;;1.00;;
73959;SDS011;62316;48.920;2.342;2024-03-23T11:00:46;1.67;;;1.67;;
73959;SDS011;62316;48.920;2.342;2024-03-23T11:05:55;1.00;;;0.00;;
73959;SDS011;62316;48.920;2.342;2024-03-23T11:08:34;2.00;;;1.00;;
73959;SDS011;62316;48.920;2.342;2024-03-23T11:11:13;1.67;;;1.00;;
73959;SDS011;62316;48.920;2.342;2024-03-23T11:13:38;1.33;;;1.33;;
73959;SDS011;62316;48.920;2.342;2024-03-23T11:16:16;3.00;;;1.67;;
73959;SDS011;62316;48.920;2.342;2024-03-23T11:18:42;2.67;;;1.33;;
73959;SDS011;62316;48.920;2.342;2024-03-23T11:21:07;1.00;;;1.00;;
73959;SDS011;62316;48.920;2.342;2024-03-23T11:23:33;2.00;;;1.00;;
73959;SDS011;62316;48.920;2.342;2024-03-23T11:25:58;2.00;;;1.00;;
73959;SDS011;62316;48.920;2.342;2024-03-23T11:28:23;2.00;;;1.00;;
73959;SDS011;62316;48.920;2.342;2024-03-23T11:30:49;1.00;;;1.00;;
73959;SDS011;62316;48.920;2.342;2024-03-23T11:33:14;1.33;;;0.67;;
73959;SDS011;62316;48.920;2.342;2024-03-23T11:35:40;1.00;;;0.00;;
73959;SDS011;62316;48.920;2.342;2024-03-23T11:38:12;0.00;;;0.00;;
73959;SDS011;62316;48.920;2.342;2024-03-23T11:40:39;1.67;;;1.67;;
73959;SDS011;62316;48.920;2.342;2024-03-23T11:43:05;0.33;;;0.33;;
73959;SDS011;62316;48.920;2.342;2024-03-23T11:45:34;1.33;;;1.00;;
73959;SDS011;62316;48.920;2.342;2024-03-23T11:48:10;1.33;;;0.00;;
73959;SDS011;62316;48.920;2.342;2024-03-23T11:50:36;0.00;;;0.00;;
73959;SDS011;62316;48.920;2.342;2024-03-23T11:55:49;1.00;;;0.67;;
73959;SDS011;62316;48.920;2.342;2024-03-23T11:58:22;1.00;;;1.00;;
73959;SDS011;62316;48.920;2.342;2024-03-23T12:00:51;1.00;;;0.33;;
73959;SDS011;62316;48.920;2.342;2024-03-23T12:03:17;0.00;;;0.00;;
73959;SDS011;62316;48.920;2.342;2024-03-23T12:05:47;0.00;;;0.00;;
73959;SDS011;62316;48.920;2.342;2024-03-23T12:11:13;1.00;;;1.00;;
73959;SDS011;62316;48.920;2.342;2024-03-23T12:13:39;1.00;;;0.00;;
73959;SDS011;62316;48.920;2.342;2024-03-23T12:16:16;1.00;;;0.00;;
73959;SDS011;62316;48.920;2.342;2024-03-23T12:18:42;2.00;;;1.00;;
73959;SDS011;62316;48.920;2.342;2024-03-23T12:21:08;0.67;;;0.00;;
73959;SDS011;62316;48.920;2.342;2024-03-23T12:23:34;2.00;;;0.00;;
73959;SDS011;62316;48.920;2.342;2024-03-23T12:25:59;0.00;;;0.00;;
73959;SDS011;62316;48.920;2.342;2024-03-23T12:28:24;2.33;;;1.00;;
73959;SDS011;62316;48.920;2.342;2024-03-23T12:30:50;1.00;;;1.00;;
73959;SDS011;62316;48.920;2.342;2024-03-23T12:33:16;0.00;;;0.00;;
73959;SDS011;62316;48.920;2.342;2024-03-23T12:35:41;1.00;;;1.00;;
73959;SDS011;62316;48.920;2.342;2024-03-23T12:38:06;1.67;;;1.00;;
73959;SDS011;62316;48.920;2.342;2024-03-23T12:40:32;0.00;;;0.00;;
73959;SDS011;62316;48.920;2.342;2024-03-23T12:42:57;0.00;;;0.00;;
73959;SDS011;62316;48.920;2.342;2024-03-23T12:45:22;2.00;;;0.00;;
73959;SDS011;62316;48.920;2.342;2024-03-23T12:47:48;2.00;;;2.00;;
73959;SDS011;62316;48.920;2.342;2024-03-23T12:50:13;1.67;;;1.00;;
73959;SDS011;62316;48.920;2.342;2024-03-23T12:52:38;1.00;;;1.00;;
73959;SDS011;62316;48.920;2.342;2024-03-23T12:55:04;1.00;;;0.00;;
73959;SDS011;62316;48.920;2.342;2024-03-23T12:57:32;0.00;;;0.00;;
73959;SDS011;62316;48.920;2.342;2024-03-23T12:59:58;0.33;;;0.33;;
73959;SDS011;62316;48.920;2.342;2024-03-23T13:02:23;0.00;;;0.00;;
73959;SDS011;62316;48.920;2.342;2024-03-23T13:04:52;1.00;;;0.00;;
73959;SDS011;62316;48.920;2.342;2024-03-23T13:07:17;0.00;;;0.00;;
73959;SDS011;62316;48.920;2.342;2024-03-23T13:09:43;0.00;;;0.00;;
73959;SDS011;62316;48.920;2.342;2024-03-23T13:12:08;0.00;;;0.00;;
73959;SDS011;62316;48.920;2.342;2024-03-23T13:14:34;0.00;;;0.00;;
73959;SDS011;62316;48.920;2.342;2024-03-23T13:16:59;1.00;;;1.00;;
73959;SDS011;62316;48.920;2.342;2024-03-23T13:19:24;0.00;;;0.00;;
73959;SDS011;62316;48.920;2.342;2024-03-23T13:21:52;0.00;;;0.00;;
73959;SDS011;62316;48.920;2.342;2024-03-23T13:24:18;0.00;;;0.00;;
73959;SDS011;62316;48.920;2.342;2024-03-23T13:26:46;0.67;;;0.00;;
73959;SDS011;62316;48.920;2.342;2024-03-23T13:29:11;0.00;;;0.00;;
73959;SDS011;62316;48.920;2.342;2024-03-23T13:31:45;2.00;;;1.00;;
73959;SDS011;62316;48.920;2.342;2024-03-23T13:34:16;1.00;;;1.00;;
73959;SDS011;62316;48.920;2.342;2024-03-23T13:36:42;3.00;;;1.00;;
73959;SDS011;62316;48.920;2.342;2024-03-23T13:39:08;0.00;;;0.00;;
73959;SDS011;62316;48.920;2.342;2024-03-23T13:41:39;0.67;;;0.00;;
73959;SDS011;62316;48.920;2.342;2024-03-23T13:44:08;1.33;;;0.33;;
73959;SDS011;62316;48.920;2.342;2024-03-23T13:46:37;1.67;;;1.00;;
73959;SDS011;62316;48.920;2.342;2024-03-23T13:49:03;2.00;;;0.67;;
73959;SDS011;62316;48.920;2.342;2024-03-23T13:51:28;1.00;;;0.00;;
73959;SDS011;62316;48.920;2.342;2024-03-23T13:53:54;0.00;;;0.00;;
73959;SDS011;62316;48.920;2.342;2024-03-23T13:56:20;1.00;;;0.00;;
73959;SDS011;62316;48.920;2.342;2024-03-23T13:58:45;0.00;;;0.00;;
73959;SDS011;62316;48.920;2.342;2024-03-23T14:01:12;0.67;;;0.33;;
73959;SDS011;62316;48.920;2.342;2024-03-23T14:03:37;1.00;;;0.00;;
73959;SDS011;62316;48.920;2.342;2024-03-23T14:06:03;3.00;;;1.67;;
73959;SDS011;62316;48.920;2.342;2024-03-23T14:08:28;1.00;;;1.00;;
73959;SDS011;62316;48.920;2.342;2024-03-23T14:10:57;1.00;;;0.00;;
73959;SDS011;62316;48.920;2.342;2024-03-23T14:13:22;0.00;;;0.00;;
73959;SDS011;62316;48.920;2.342;2024-03-23T14:15:52;1.00;;;0.00;;
73959;SDS011;62316;48.920;2.342;2024-03-23T14:18:17;2.00;;;2.00;;
73959;SDS011;62316;48.920;2.342;2024-03-23T14:20:42;3.00;;;0.67;;
73959;SDS011;62316;48.920;2.342;2024-03-23T14:23:08;2.67;;;2.00;;
73959;SDS011;62316;48.920;2.342;2024-03-23T14:25:33;1.00;;;1.00;;
73959;SDS011;62316;48.920;2.342;2024-03-23T14:27:58;1.67;;;0.00;;
73959;SDS011;62316;48.920;2.342;2024-03-23T14:30:23;0.00;;;0.00;;
73959;SDS011;62316;48.920;2.342;2024-03-23T14:32:49;0.00;;;0.00;;
73959;SDS011;62316;48.920;2.342;2024-03-23T14:35:14;0.67;;;0.00;;
73959;SDS011;62316;48.920;2.342;2024-03-23T14:37:39;0.00;;;0.00;;
73959;SDS011;62316;48.920;2.342;2024-03-23T14:40:07;0.00;;;0.00;;
73959;SDS011;62316;48.920;2.342;2024-03-23T14:42:32;2.67;;;1.00;;
73959;SDS011;62316;48.920;2.342;2024-03-23T14:44:57;0.00;;;0.00;;
73959;SDS011;62316;48.920;2.342;2024-03-23T14:47:23;1.00;;;1.00;;
73959;SDS011;62316;48.920;2.342;2024-03-23T14:49:48;0.67;;;0.00;;
73959;SDS011;62316;48.920;2.342;2024-03-23T14:52:15;0.00;;;0.00;;
73959;SDS011;62316;48.920;2.342;2024-03-23T14:54:40;0.00;;;0.00;;
73959;SDS011;62316;48.920;2.342;2024-03-23T14:57:06;1.00;;;1.00;;
73959;SDS011;62316;48.920;2.342;2024-03-23T14:59:34;1.00;;;1.00;;
73959;SDS011;62316;48.920;2.342;2024-03-23T15:01:59;0.67;;;0.00;;
73959;SDS011;62316;48.920;2.342;2024-03-23T15:04:24;0.00;;;0.00;;
73959;SDS011;62316;48.920;2.342;2024-03-23T15:06:50;1.00;;;1.00;;
73959;SDS011;62316;48.920;2.342;2024-03-23T15:09:15;0.00;;;0.00;;
73959;SDS011;62316;48.920;2.342;2024-03-23T15:11:40;0.00;;;0.00;;
73959;SDS011;62316;48.920;2.342;2024-03-23T15:14:05;1.00;;;0.00;;
73959;SDS011;62316;48.920;2.342;2024-03-23T15:16:32;0.00;;;0.00;;
73959;SDS011;62316;48.920;2.342;2024-03-23T15:18:57;0.33;;;0.00;;
73959;SDS011;62316;48.920;2.342;2024-03-23T15:21:22;0.67;;;0.33;;
73959;SDS011;62316;48.920;2.342;2024-03-23T15:23:48;1.00;;;1.00;;
73959;SDS011;62316;48.920;2.342;2024-03-23T15:26:13;0.00;;;0.00;;
73959;SDS011;62316;48.920;2.342;2024-03-23T15:28:38;2.00;;;0.00;;
73959;SDS011;62316;48.920;2.342;2024-03-23T15:31:26;0.00;;;0.00;;
73959;SDS011;62316;48.920;2.342;2024-03-23T15:33:52;1.67;;;0.67;;
73959;SDS011;62316;48.920;2.342;2024-03-23T15:36:17;0.67;;;0.67;;
73959;SDS011;62316;48.920;2.342;2024-03-23T15:38:43;3.00;;;1.75;;
73959;SDS011;62316;48.920;2.342;2024-03-23T15:41:08;1.00;;;0.00;;
73959;SDS011;62316;48.920;2.342;2024-03-23T15:43:33;1.33;;;0.00;;
73959;SDS011;62316;48.920;2.342;2024-03-23T15:45:59;1.00;;;1.00;;